Pitkin, Louisiana
Current Conditions -  °F | °C
As of 11:26 PM on Saturday 22 Nov 2014 (Local Time) from KPOE Reporting Station
Overcast Overcast  
Wind Chill: 63°   Ceiling: 600
Heat Index: 63°   Visibility: 8mi
Dew Point: 63°   Wind: 12mph
Humidity: 100%   Direction: 130°SE
Pressure: 29.77"   Gusts: NA
Location:  30.94°N, 92.94°W
Report Text: KPOE 230526Z AUTO 13010KT 8SM OVC006 17/17 A2977 RMK AO2 LTG DSNT S PRESFR
Loading
Personal Weather Stations






























Interactive Weather Map New forecast layout! Learn more

10-Day Weather Forecast

Advertisements
Track Severe Weather on mobile